createdAt,value
2018-07-17T00:03:07.528Z,96328.44
2018-07-17T00:05:34.715Z,96325.64
2018-07-17T00:08:01.912Z,96327.48
2018-07-17T00:14:26.121Z,96326.64
2018-07-17T00:19:26.742Z,96323.80
2018-07-17T00:24:27.170Z,96334.59
2018-07-17T00:26:54.395Z,96329.55
2018-07-17T00:29:21.577Z,96334.98
2018-07-17T00:31:48.945Z,96329.03
2018-07-17T00:34:16.169Z,96325.97
2018-07-17T00:36:43.386Z,96330.55
2018-07-17T00:39:10.672Z,96325.31
2018-07-17T00:41:37.913Z,96326.73
2018-07-17T00:44:05.180Z,96331.00
2018-07-17T00:46:32.441Z,96320.50
2018-07-17T00:51:33.453Z,96321.77
2018-07-17T00:54:00.756Z,96323.22
2018-07-17T00:56:28.044Z,96326.52
2018-07-17T00:58:55.307Z,96323.96
2018-07-17T01:01:28.290Z,96320.96
2018-07-17T01:04:01.290Z,96328.34
2018-07-17T01:06:34.177Z,96322.59
2018-07-17T01:09:07.174Z,96333.78
2018-07-17T01:11:40.253Z,96335.44
2018-07-17T01:16:45.690Z,96326.09
2018-07-17T01:19:12.985Z,96325.92
2018-07-17T01:21:40.295Z,96325.19
2018-07-17T01:24:07.773Z,96318.48
2018-07-17T01:26:35.022Z,96319.72
2018-07-17T01:29:02.367Z,96318.07
2018-07-17T01:31:30.063Z,96320.96
2018-07-17T01:34:02.206Z,96316.56
2018-07-17T01:36:29.462Z,96324.89
2018-07-17T01:38:56.696Z,96326.09
2018-07-17T01:41:23.958Z,96316.00
2018-07-17T01:43:51.208Z,96323.77
2018-07-17T01:46:18.460Z,96317.97
2018-07-17T01:48:45.702Z,96313.92
2018-07-17T01:51:12.919Z,96317.13
2018-07-17T01:53:40.223Z,96318.52
2018-07-17T01:56:07.441Z,96319.98
2018-07-17T01:58:34.697Z,96322.30
2018-07-17T02:01:01.911Z,96322.58
2018-07-17T02:03:29.124Z,96326.25
2018-07-17T02:05:56.456Z,96324.73
2018-07-17T02:08:23.669Z,96328.58
2018-07-17T02:10:50.878Z,96324.63
2018-07-17T02:13:18.102Z,96324.28
2018-07-17T02:15:45.315Z,96324.93
2018-07-17T02:18:12.620Z,96326.92
2018-07-17T02:20:39.838Z,96326.92
2018-07-17T02:23:07.088Z,96327.37
2018-07-17T02:25:34.320Z,96322.34
2018-07-17T02:28:01.608Z,96320.96
2018-07-17T02:30:28.805Z,96320.28
2018-07-17T02:32:56.097Z,96319.27
2018-07-17T02:35:23.358Z,96314.01
2018-07-17T02:37:50.606Z,96323.64
2018-07-17T02:40:17.830Z,96324.34
2018-07-17T02:42:45.173Z,96322.28
2018-07-17T02:45:12.412Z,96324.95
2018-07-17T02:47:39.717Z,96326.67
2018-07-17T02:50:06.989Z,96319.52
2018-07-17T02:52:34.305Z,96325.70
2018-07-17T02:55:01.590Z,96328.33
2018-07-17T03:00:02.575Z,96329.81
2018-07-17T03:02:29.834Z,96334.30
2018-07-17T03:04:57.042Z,96333.63
2018-07-17T03:07:24.203Z,96333.05
2018-07-17T03:09:51.469Z,96339.97
2018-07-17T03:12:18.719Z,96340.03
2018-07-17T03:14:48.133Z,96339.66
2018-07-17T03:17:15.358Z,96337.49
2018-07-17T03:19:42.620Z,96338.21
2018-07-17T03:22:09.812Z,96337.47
2018-07-17T03:24:37.101Z,96346.05
2018-07-17T03:27:04.353Z,96345.52
2018-07-17T03:29:31.617Z,96347.34
2018-07-17T03:31:58.895Z,96356.42
2018-07-17T03:34:26.202Z,96359.44
2018-07-17T03:36:53.415Z,96358.01
2018-07-17T03:39:20.683Z,96366.99
2018-07-17T03:41:47.886Z,96365.13
2018-07-17T03:44:15.085Z,96369.09
2018-07-17T03:46:42.375Z,96370.47
2018-07-17T03:49:09.594Z,96375.36
2018-07-17T03:51:36.902Z,96375.70
2018-07-17T03:54:04.076Z,96377.98
2018-07-17T03:56:31.293Z,96379.64
2018-07-17T03:58:58.530Z,96379.09
2018-07-17T04:01:25.716Z,96383.53
2018-07-17T04:03:52.927Z,96384.96
2018-07-17T04:06:20.139Z,96386.83
2018-07-17T04:08:47.401Z,96384.40
2018-07-17T04:11:14.548Z,96386.41
2018-07-17T04:13:41.782Z,96382.08
2018-07-17T04:16:09.026Z,96390.00
2018-07-17T04:18:36.305Z,96389.86
2018-07-17T04:21:03.471Z,96390.78
2018-07-17T04:23:30.769Z,96393.16
2018-07-17T04:25:58.019Z,96394.93
2018-07-17T04:28:25.281Z,96398.80
2018-07-17T04:30:52.486Z,96399.44
2018-07-17T04:33:19.958Z,96400.18
2018-07-17T04:35:47.202Z,96401.70
2018-07-17T04:38:14.463Z,96400.81
2018-07-17T04:40:41.751Z,96407.61
2018-07-17T04:43:08.926Z,96403.23
2018-07-17T04:45:36.137Z,96403.16
2018-07-17T04:48:08.513Z,96407.75
2018-07-17T04:50:38.531Z,96405.73
2018-07-17T04:53:06.902Z,96406.89
2018-07-17T04:55:34.130Z,96410.16
2018-07-17T04:58:01.374Z,96411.14
2018-07-17T05:00:28.535Z,96407.23
2018-07-17T05:02:55.765Z,96401.30
2018-07-17T05:05:23.165Z,96403.20
2018-07-17T05:07:50.442Z,96414.17
2018-07-17T05:10:18.135Z,96411.36
2018-07-17T05:12:45.407Z,96411.44
2018-07-17T05:15:12.614Z,96405.28
2018-07-17T05:17:39.900Z,96421.87
2018-07-17T05:20:07.171Z,96423.96
2018-07-17T05:22:34.448Z,96430.91
2018-07-17T05:25:01.653Z,96424.08
2018-07-17T05:27:28.933Z,96423.89
2018-07-17T05:29:56.177Z,96420.92
2018-07-17T05:32:23.400Z,96418.63
2018-07-17T05:34:50.712Z,96422.28
2018-07-17T05:37:17.958Z,96421.12
2018-07-17T05:39:45.149Z,96422.53
2018-07-17T05:42:12.452Z,96423.81
2018-07-17T05:44:39.628Z,96425.97
2018-07-17T05:47:07.066Z,96426.64
2018-07-17T05:49:34.349Z,96430.45
2018-07-17T05:52:01.652Z,96433.13
2018-07-17T05:54:28.788Z,96427.50
2018-07-17T05:56:56.042Z,96426.92
2018-07-17T05:59:23.293Z,96424.23
2018-07-17T06:01:50.560Z,96428.05
2018-07-17T06:04:17.762Z,96432.14
2018-07-17T06:06:44.993Z,96428.35
2018-07-17T06:09:12.284Z,96435.38
2018-07-17T06:11:39.646Z,96426.87
2018-07-17T06:14:06.906Z,96423.12
2018-07-17T06:16:34.220Z,96426.95
2018-07-17T06:19:01.727Z,96428.94
2018-07-17T06:21:29.022Z,96420.72
2018-07-17T06:23:56.250Z,96422.28
2018-07-17T06:26:23.499Z,96427.27
2018-07-17T06:28:50.823Z,96421.81
2018-07-17T06:31:18.241Z,96420.66
2018-07-17T06:33:45.453Z,96421.34
2018-07-17T06:36:12.689Z,96423.45
2018-07-17T06:38:39.941Z,96421.25
2018-07-17T06:41:07.232Z,96420.67
2018-07-17T06:43:34.566Z,96427.34
2018-07-17T06:46:01.762Z,96425.95
2018-07-17T06:48:29.073Z,96421.71
2018-07-17T06:50:56.395Z,96429.60
2018-07-17T06:53:23.645Z,96423.46
2018-07-17T06:55:51.001Z,96432.14
2018-07-17T06:58:18.251Z,96424.00
2018-07-17T07:00:45.526Z,96437.14
2018-07-17T07:03:12.769Z,96431.41
2018-07-17T07:05:39.963Z,96432.87
2018-07-17T07:08:07.293Z,96428.89
2018-07-17T07:10:34.572Z,96429.01
2018-07-17T07:13:01.850Z,96428.45
2018-07-17T07:15:29.106Z,96423.68
2018-07-17T07:17:56.359Z,96422.83
2018-07-17T07:20:23.654Z,96419.56
2018-07-17T07:22:50.936Z,96421.12
2018-07-17T07:25:18.257Z,96423.92
2018-07-17T07:27:45.514Z,96422.02
2018-07-17T07:30:12.688Z,96407.62
2018-07-17T07:32:40.048Z,96421.75
2018-07-17T07:35:07.309Z,96418.13
2018-07-17T07:37:34.611Z,96429.41
2018-07-17T07:40:01.995Z,96426.30
2018-07-17T07:42:29.273Z,96425.77
2018-07-17T07:44:56.546Z,96421.95
2018-07-17T07:47:23.789Z,96425.52
2018-07-17T07:49:51.057Z,96415.56
2018-07-17T07:52:18.335Z,96416.53
2018-07-17T07:54:45.659Z,96417.20
2018-07-17T07:57:12.865Z,96416.56
2018-07-17T07:59:40.162Z,96416.98
2018-07-17T08:02:07.413Z,96416.36
2018-07-17T08:04:34.692Z,96422.47
2018-07-17T08:07:01.934Z,96421.77
2018-07-17T08:09:29.209Z,96429.73
2018-07-17T08:11:56.468Z,96428.96
2018-07-17T08:14:23.696Z,96429.88
2018-07-17T08:16:50.872Z,96437.88
2018-07-17T08:19:18.098Z,96434.47
2018-07-17T08:21:45.385Z,96432.83
2018-07-17T08:24:12.799Z,96437.03
2018-07-17T08:26:40.081Z,96433.66
2018-07-17T08:29:07.336Z,96437.11
2018-07-17T08:31:34.688Z,96433.28
2018-07-17T08:34:01.902Z,96430.14
2018-07-17T08:36:29.175Z,96432.85
2018-07-17T08:38:56.474Z,96432.85
2018-07-17T08:41:23.764Z,96438.33
2018-07-17T08:43:50.994Z,96438.94
2018-07-17T08:46:18.401Z,96438.03
2018-07-17T08:48:45.654Z,96442.13
2018-07-17T08:51:12.920Z,96434.75
2018-07-17T08:53:40.186Z,96441.87
2018-07-17T08:56:07.441Z,96439.88
2018-07-17T08:58:34.689Z,96441.93
2018-07-17T09:01:01.925Z,96440.29
2018-07-17T09:03:29.250Z,96438.70
2018-07-17T09:05:56.486Z,96443.67
2018-07-17T09:08:23.792Z,96441.69
2018-07-17T09:10:51.018Z,96442.07
2018-07-17T09:13:18.305Z,96439.89
2018-07-17T09:15:45.556Z,96443.79
2018-07-17T09:18:12.722Z,96444.59
2018-07-17T09:20:39.998Z,96449.18
2018-07-17T09:23:07.366Z,96445.44
2018-07-17T09:25:34.568Z,96448.88
2018-07-17T09:28:01.877Z,96447.80
2018-07-17T09:30:33.646Z,96450.78
2018-07-17T09:33:00.997Z,96444.41
2018-07-17T09:35:28.171Z,96447.79
2018-07-17T09:37:55.403Z,96443.02
2018-07-17T09:40:22.662Z,96443.80
2018-07-17T09:42:49.904Z,96440.56
2018-07-17T09:45:17.170Z,96447.03
2018-07-17T09:47:44.471Z,96447.13
2018-07-17T09:50:11.778Z,96444.11
2018-07-17T09:52:38.960Z,96444.89
2018-07-17T09:55:06.437Z,96452.36
2018-07-17T09:57:33.702Z,96446.97
2018-07-17T10:00:00.961Z,96451.22
2018-07-17T10:02:29.583Z,96447.95
2018-07-17T10:04:57.480Z,96441.58
2018-07-17T10:07:24.814Z,96444.59
2018-07-17T10:09:52.110Z,96453.66
2018-07-17T10:12:19.285Z,96446.92
2018-07-17T10:14:46.735Z,96450.73
2018-07-17T10:17:13.979Z,96447.91
2018-07-17T10:19:41.240Z,96448.97
2018-07-17T10:22:08.505Z,96447.52
2018-07-17T10:24:35.724Z,96445.69
2018-07-17T10:27:03.049Z,96450.49
2018-07-17T10:29:30.291Z,96445.95
2018-07-17T10:31:57.824Z,96437.72
2018-07-17T10:34:25.128Z,96450.16
2018-07-17T10:36:52.362Z,96444.72
2018-07-17T10:39:19.681Z,96438.23
2018-07-17T10:41:47.059Z,96450.37
2018-07-17T10:44:14.290Z,96440.64
2018-07-17T10:46:41.584Z,96439.08
2018-07-17T10:49:08.844Z,96437.17
2018-07-17T10:51:36.138Z,96454.42
2018-07-17T10:54:03.722Z,96438.12
2018-07-17T10:56:30.990Z,96437.95
2018-07-17T10:58:58.572Z,96432.27
2018-07-17T11:01:25.916Z,96435.08
2018-07-17T11:03:53.190Z,96425.64
2018-07-17T11:06:20.452Z,96426.69
2018-07-17T11:08:47.774Z,96422.69
2018-07-17T11:11:15.065Z,96422.02
2018-07-17T11:13:42.368Z,96423.02
2018-07-17T11:16:09.606Z,96422.70
2018-07-17T11:18:36.832Z,96417.07
2018-07-17T11:21:04.058Z,96420.11
2018-07-17T11:23:31.363Z,96416.45
2018-07-17T11:25:58.601Z,96406.78
2018-07-17T11:28:25.901Z,96413.25
2018-07-17T11:30:53.168Z,96411.22
2018-07-17T11:33:20.380Z,96401.38
2018-07-17T11:35:47.684Z,96404.80
2018-07-17T11:38:15.126Z,96402.70
2018-07-17T11:40:42.352Z,96405.09
2018-07-17T11:43:09.622Z,96405.42
2018-07-17T11:45:36.845Z,96407.86
2018-07-17T11:48:04.225Z,96409.36
2018-07-17T11:50:31.474Z,96407.74
2018-07-17T11:52:58.695Z,96407.23
2018-07-17T11:55:26.006Z,96414.27
2018-07-17T11:57:53.379Z,96401.77
2018-07-17T12:00:20.673Z,96404.50
2018-07-17T12:02:48.009Z,96399.92
2018-07-17T12:05:15.337Z,96396.23
2018-07-17T12:07:42.547Z,96402.44
2018-07-17T12:10:09.854Z,96395.84
2018-07-17T12:12:37.207Z,96394.45
2018-07-17T12:15:04.422Z,96384.78
2018-07-17T12:17:31.741Z,96384.84
2018-07-17T12:19:59.168Z,96388.30
2018-07-17T12:22:26.354Z,96368.16
2018-07-17T12:24:53.650Z,96383.39
2018-07-17T12:27:20.981Z,96386.88
2018-07-17T12:29:48.200Z,96395.66
2018-07-17T12:32:15.409Z,96386.27
2018-07-17T12:34:42.692Z,96376.72
2018-07-17T12:37:09.993Z,96387.75
2018-07-17T12:39:37.325Z,96391.88
2018-07-17T12:42:04.645Z,96387.54
2018-07-17T12:44:31.901Z,96385.36
2018-07-17T12:46:59.125Z,96393.14
2018-07-17T12:49:26.439Z,96378.66
2018-07-17T12:51:53.692Z,96376.30
2018-07-17T12:54:20.974Z,96382.66
2018-07-17T12:56:48.253Z,96390.70
2018-07-17T12:59:15.502Z,96388.82
2018-07-17T13:01:42.736Z,96389.92
2018-07-17T13:04:09.930Z,96401.19
2018-07-17T13:06:37.283Z,96398.05
2018-07-17T13:09:06.641Z,96399.84
2018-07-17T13:11:33.862Z,96406.41
2018-07-17T13:14:01.069Z,96405.96
2018-07-17T13:16:28.351Z,96405.73
2018-07-17T13:18:55.781Z,96404.91
2018-07-17T13:21:23.027Z,96407.17
2018-07-17T13:23:50.388Z,96399.02
2018-07-17T13:26:17.612Z,96381.42
2018-07-17T13:28:44.831Z,96403.52
2018-07-17T13:31:12.064Z,96400.28
2018-07-17T13:33:39.292Z,96391.19
2018-07-17T13:36:06.590Z,96389.26
2018-07-17T13:38:39.053Z,96390.91
2018-07-17T13:41:09.699Z,96392.31
2018-07-17T13:43:37.137Z,96399.20
2018-07-17T13:46:04.553Z,96407.25
2018-07-17T13:48:31.908Z,96409.28
2018-07-17T13:50:59.306Z,96404.23
2018-07-17T13:53:26.812Z,96416.14
2018-07-17T13:55:54.085Z,96416.84
2018-07-17T13:58:21.298Z,96417.56
2018-07-17T14:00:48.991Z,96422.16
2018-07-17T14:03:16.346Z,96426.29
2018-07-17T14:05:43.622Z,96432.77
2018-07-17T14:08:10.908Z,96439.78
2018-07-17T14:10:38.180Z,96450.22
2018-07-17T14:13:05.822Z,96454.77
2018-07-17T14:15:33.205Z,96464.77
2018-07-17T14:18:00.500Z,96461.39
2018-07-17T14:20:27.713Z,96451.90
2018-07-17T14:22:54.981Z,96460.25
2018-07-17T14:25:22.195Z,96457.83
2018-07-17T14:27:49.487Z,96453.59
2018-07-17T14:30:16.729Z,96444.63
2018-07-17T14:32:43.941Z,96451.86
2018-07-17T14:35:11.205Z,96450.33
2018-07-17T14:37:38.550Z,96447.39
2018-07-17T14:40:05.843Z,96453.97
2018-07-17T14:42:33.992Z,96454.69
2018-07-17T14:45:01.541Z,96445.31
2018-07-17T14:47:28.814Z,96449.31
2018-07-17T14:49:56.300Z,96453.52
2018-07-17T14:52:23.598Z,96456.59
2018-07-17T14:54:50.977Z,96456.02
2018-07-17T14:57:18.233Z,96465.03
2018-07-17T14:59:45.609Z,96457.58
2018-07-17T15:02:12.880Z,96456.86
2018-07-17T15:04:40.199Z,96454.64
2018-07-17T15:07:07.537Z,96450.63
2018-07-17T15:09:34.920Z,96453.40
2018-07-17T15:12:02.154Z,96450.97
2018-07-17T15:14:29.380Z,96451.94
2018-07-17T15:16:56.581Z,96453.22
2018-07-17T15:19:23.876Z,96449.41
2018-07-17T15:21:51.092Z,96452.73
2018-07-17T15:24:18.361Z,96439.66
2018-07-17T15:26:45.571Z,96441.41
2018-07-17T15:29:12.813Z,96448.39
2018-07-17T15:31:39.996Z,96450.02
2018-07-17T15:34:07.288Z,96444.39
2018-07-17T15:36:34.607Z,96446.36
2018-07-17T15:39:01.837Z,96440.97
2018-07-17T15:41:29.090Z,96440.20
2018-07-17T15:43:56.402Z,96432.46
2018-07-17T15:46:23.655Z,96433.70
2018-07-17T15:48:50.955Z,96430.21
2018-07-17T15:51:18.264Z,96428.21
2018-07-17T15:53:45.606Z,96424.30
2018-07-17T15:56:12.935Z,96422.83
2018-07-17T15:58:40.237Z,96425.08
2018-07-17T16:01:07.529Z,96427.02
2018-07-17T16:03:34.839Z,96426.65
2018-07-17T16:06:02.139Z,96422.16
2018-07-17T16:08:29.352Z,96419.31
2018-07-17T16:10:56.627Z,96413.56
2018-07-17T16:13:23.939Z,96415.36
2018-07-17T16:15:51.190Z,96411.41
2018-07-17T16:18:18.434Z,96416.84
2018-07-17T16:20:45.725Z,96419.34
2018-07-17T16:23:12.954Z,96420.16
2018-07-17T16:25:40.228Z,96419.45
2018-07-17T16:28:07.401Z,96414.76
2018-07-17T16:30:34.702Z,96419.23
2018-07-17T16:33:01.877Z,96419.67
2018-07-17T16:35:29.074Z,96421.41
2018-07-17T16:38:01.356Z,96416.84
2018-07-17T16:40:28.621Z,96422.16
2018-07-17T16:42:55.945Z,96423.70
2018-07-17T16:45:23.249Z,96419.88
2018-07-17T16:47:50.527Z,96418.23
2018-07-17T16:50:17.729Z,96428.05
2018-07-17T16:52:44.995Z,96428.22
2018-07-17T16:55:12.227Z,96425.52
2018-07-17T16:57:39.514Z,96420.28
2018-07-17T17:00:06.940Z,96414.31
2018-07-17T17:02:34.225Z,96424.45
2018-07-17T17:05:02.978Z,96422.65
2018-07-17T17:07:30.184Z,96432.51
2018-07-17T17:09:57.357Z,96430.84
2018-07-17T17:12:24.622Z,96434.00
2018-07-17T17:14:52.021Z,96431.01
2018-07-17T17:17:19.154Z,96437.36
2018-07-17T17:19:46.427Z,96430.94
2018-07-17T17:22:13.973Z,96433.91
2018-07-17T17:24:41.282Z,96443.46
2018-07-17T17:27:08.455Z,96441.44
2018-07-17T17:29:35.721Z,96440.70
2018-07-17T17:32:02.933Z,96436.31
2018-07-17T17:34:30.150Z,96443.46
2018-07-17T17:36:58.857Z,96441.23
2018-07-17T17:39:26.298Z,96439.88
2018-07-17T17:41:53.464Z,96439.78
2018-07-17T17:44:20.899Z,96448.48
2018-07-17T17:46:48.170Z,96451.32
2018-07-17T17:49:15.444Z,96451.51
2018-07-17T17:51:42.671Z,96450.77
2018-07-17T17:54:09.991Z,96452.66
2018-07-17T17:56:37.221Z,96460.73
2018-07-17T17:59:04.464Z,96463.42
2018-07-17T18:01:31.819Z,96466.03
2018-07-17T18:03:59.495Z,96471.89
2018-07-17T18:06:26.780Z,96471.77
2018-07-17T18:08:54.012Z,96470.01
2018-07-17T18:11:21.274Z,96477.94
2018-07-17T18:13:48.497Z,96481.64
2018-07-17T18:16:15.755Z,96479.37
2018-07-17T18:18:43.119Z,96485.55
2018-07-17T18:21:10.387Z,96487.20
2018-07-17T18:23:37.594Z,96485.56
2018-07-17T18:26:04.865Z,96486.67
2018-07-17T18:28:32.115Z,96490.91
2018-07-17T18:30:59.357Z,96490.38
2018-07-17T18:33:26.710Z,96486.98
2018-07-17T18:35:53.959Z,96495.95
2018-07-17T18:38:21.279Z,96505.92
2018-07-17T18:40:48.517Z,96500.98
2018-07-17T18:43:15.811Z,96505.33
2018-07-17T18:45:43.148Z,96509.66
2018-07-17T18:48:10.404Z,96517.67
2018-07-17T18:50:37.695Z,96516.75
2018-07-17T18:53:05.082Z,96536.80
2018-07-17T18:55:32.369Z,96546.98
2018-07-17T18:57:59.694Z,96547.59
2018-07-17T19:00:26.907Z,96549.63
2018-07-17T19:02:54.231Z,96542.25
2018-07-17T19:05:21.442Z,96549.52
2018-07-17T19:07:48.670Z,96562.47
2018-07-17T19:10:16.350Z,96563.23
2018-07-17T19:12:43.648Z,96566.93
2018-07-17T19:15:10.890Z,96566.17
2018-07-17T19:17:38.146Z,96571.49
2018-07-17T19:20:05.478Z,96568.34
2018-07-17T19:22:32.748Z,96574.03
2018-07-17T19:25:01.091Z,96565.09
2018-07-17T19:27:28.318Z,96573.42
2018-07-17T19:29:55.554Z,96576.25
2018-07-17T19:32:22.770Z,96573.11
2018-07-17T19:34:49.986Z,96568.80
2018-07-17T19:37:17.213Z,96568.77
2018-07-17T19:39:44.415Z,96566.62
2018-07-17T19:42:11.702Z,96568.76
2018-07-17T19:44:38.966Z,96576.09
2018-07-17T19:47:06.264Z,96576.13
2018-07-17T19:49:33.473Z,96580.33
2018-07-17T19:52:00.738Z,96582.14
2018-07-17T19:54:29.973Z,96575.88
2018-07-17T19:56:57.339Z,96580.70
2018-07-17T19:59:24.599Z,96573.69
2018-07-17T20:01:51.997Z,96572.01
2018-07-17T20:04:19.166Z,96573.82
2018-07-17T20:06:46.479Z,96575.44
2018-07-17T20:09:13.709Z,96580.03
2018-07-17T20:11:41.039Z,96583.81
2018-07-17T20:14:08.282Z,96591.38
2018-07-17T20:16:35.543Z,96593.52
2018-07-17T20:19:02.776Z,96594.00
2018-07-17T20:21:30.010Z,96592.34
2018-07-17T20:23:57.448Z,96598.66
2018-07-17T20:26:24.763Z,96594.41
2018-07-17T20:28:51.977Z,96597.74
2018-07-17T20:31:19.270Z,96596.30
2018-07-17T20:33:46.680Z,96600.11
2018-07-17T20:36:14.289Z,96601.44
2018-07-17T20:38:41.573Z,96600.11
2018-07-17T20:41:09.489Z,96599.78
2018-07-17T20:43:36.721Z,96601.94
2018-07-17T20:46:05.408Z,96597.16
2018-07-17T20:48:32.773Z,96601.14
2018-07-17T20:51:00.071Z,96604.44
2018-07-17T20:56:03.981Z,96630.81
2018-07-17T20:58:31.247Z,96635.64
2018-07-17T21:00:58.526Z,96627.84
2018-07-17T21:03:25.864Z,96630.49
2018-07-17T21:05:53.147Z,96637.27
2018-07-17T21:08:39.863Z,96633.47
2018-07-17T21:11:08.217Z,96634.96
2018-07-17T21:13:39.208Z,96639.91
2018-07-17T21:16:07.647Z,96639.59
2018-07-17T21:18:34.909Z,96643.09
2018-07-17T21:21:02.213Z,96650.55
2018-07-17T21:23:29.468Z,96648.25
2018-07-17T21:25:56.724Z,96646.90
2018-07-17T21:28:24.068Z,96648.58
2018-07-17T21:30:51.311Z,96652.69
2018-07-17T21:33:18.530Z,96654.16
2018-07-17T21:35:45.907Z,96661.09
2018-07-17T21:38:13.286Z,96657.91
2018-07-17T21:40:40.725Z,96643.12
2018-07-17T21:43:07.997Z,96641.97
2018-07-17T21:45:35.336Z,96638.92
2018-07-17T21:48:02.711Z,96625.09
2018-07-17T21:50:30.001Z,96624.41
2018-07-17T21:52:57.421Z,96617.75
2018-07-17T21:55:24.712Z,96626.45
2018-07-17T21:57:52.115Z,96623.87
2018-07-17T22:00:19.430Z,96620.94
2018-07-17T22:02:46.872Z,96621.79
2018-07-17T22:05:14.120Z,96618.79
2018-07-17T22:07:41.544Z,96631.37
2018-07-17T22:10:08.961Z,96640.05
2018-07-17T22:12:36.279Z,96643.09
2018-07-17T22:15:03.665Z,96643.20
2018-07-17T22:17:30.861Z,96643.23
2018-07-17T22:19:58.102Z,96650.58
2018-07-17T22:22:25.308Z,96643.12
2018-07-17T22:24:52.513Z,96637.20
2018-07-17T22:27:19.824Z,96637.06
2018-07-17T22:29:47.078Z,96639.81
2018-07-17T22:32:14.351Z,96637.31
2018-07-17T22:34:41.677Z,96641.84
2018-07-17T22:37:09.084Z,96645.16
2018-07-17T22:39:36.247Z,96641.25
2018-07-17T22:42:03.588Z,96637.28
2018-07-17T22:44:30.796Z,96634.78
2018-07-17T22:46:58.072Z,96628.97
2018-07-17T22:49:25.322Z,96630.53
2018-07-17T22:51:53.624Z,96629.77
2018-07-17T22:54:20.842Z,96628.40
2018-07-17T22:56:48.119Z,96635.48
2018-07-17T22:59:16.129Z,96636.72
2018-07-17T23:01:43.406Z,96632.43
2018-07-17T23:04:10.705Z,96626.80
2018-07-17T23:06:37.901Z,96628.12
2018-07-17T23:09:07.435Z,96632.84
2018-07-17T23:11:34.857Z,96630.20
2018-07-17T23:14:02.092Z,96633.64
2018-07-17T23:16:29.508Z,96626.75
2018-07-17T23:18:56.841Z,96625.04
2018-07-17T23:21:24.156Z,96626.47
2018-07-17T23:23:51.454Z,96627.66
2018-07-17T23:26:18.769Z,96625.73
2018-07-17T23:28:45.986Z,96630.41
2018-07-17T23:31:13.586Z,96628.16
2018-07-17T23:33:43.225Z,96631.42
2018-07-17T23:36:10.599Z,96630.09
2018-07-17T23:38:37.795Z,96631.42
2018-07-17T23:41:04.990Z,96636.62
2018-07-17T23:43:32.210Z,96639.27
2018-07-17T23:45:59.465Z,96637.03
2018-07-17T23:48:26.667Z,96639.72
2018-07-17T23:50:53.874Z,96641.33
2018-07-17T23:53:21.080Z,96640.52
2018-07-17T23:55:48.354Z,96634.17
2018-07-17T23:58:15.581Z,96637.97
